Time;durP1;ratioP1;P1;durP2;ratioP2;P2;SDS_P1;SDS_P2;PMS_P1;PMS_P2;Temp;Humidity;BMP_temperature;BMP_pressure;BME280_temperature;BME280_humidity;BME280_pressure;Samples;Min_cycle;Max_cycle;Signal;HPM_P1;HPM_P2
2021/10/06 00:00:29;;;;;;;15.95;5.32;;;;;;;;;;5017532;28;20034;-74
2021/10/06 00:02:55;;;;;;;10.93;5.70;;;;;;;;;;5019717;28;20051;-74
2021/10/06 00:05:21;;;;;;;14.43;5.65;;;;;;;;;;5023687;28;20021;-75
2021/10/06 00:07:47;;;;;;;12.82;5.82;;;;;;;;;;5015200;28;20552;-74
2021/10/06 00:10:13;;;;;;;8.57;4.90;;;;;;;;;;5019734;28;20060;-74
2021/10/06 00:12:40;;;;;;;7.85;5.03;;;;;;;;;;5018087;28;20033;-74
2021/10/06 00:15:07;;;;;;;10.30;5.35;;;;;;;;;;5020214;28;20029;-74
2021/10/06 00:17:34;;;;;;;10.70;5.70;;;;;;;;;;5016418;28;20535;-74
2021/10/06 00:20:00;;;;;;;11.40;5.60;;;;;;;;;;5020340;28;20567;-74
2021/10/06 00:22:26;;;;;;;9.50;5.07;;;;;;;;;;5017135;28;20032;-74
2021/10/06 00:24:53;;;;;;;7.95;5.53;;;;;;;;;;5021266;28;20047;-74
2021/10/06 00:27:19;;;;;;;8.10;5.75;;;;;;;;;;5023211;28;20053;-74
2021/10/06 00:29:45;;;;;;;9.50;5.75;;;;;;;;;;5018545;28;20536;-74
2021/10/06 00:32:11;;;;;;;11.32;6.22;;;;;;;;;;5021169;28;20100;-74
2021/10/06 00:34:37;;;;;;;13.20;6.55;;;;;;;;;;5018286;28;20580;-74
2021/10/06 00:37:04;;;;;;;14.43;6.43;;;;;;;;;;5018460;28;20101;-74
2021/10/06 00:39:30;;;;;;;10.32;6.28;;;;;;;;;;5017249;28;20473;-74
2021/10/06 00:41:56;;;;;;;11.98;6.38;;;;;;;;;;5018155;28;20053;-74
2021/10/06 00:44:23;;;;;;;9.82;6.00;;;;;;;;;;5016127;28;20039;-74
2021/10/06 00:46:50;;;;;;;14.73;7.03;;;;;;;;;;5020526;28;20087;-74
2021/10/06 00:49:17;;;;;;;12.60;5.90;;;;;;;;;;5023577;28;20112;-74
2021/10/06 00:51:44;;;;;;;15.30;6.65;;;;;;;;;;5017684;28;20028;-74
2021/10/06 00:54:10;;;;;;;10.15;6.05;;;;;;;;;;5017451;28;20022;-74
2021/10/06 00:56:36;;;;;;;11.90;6.07;;;;;;;;;;5016513;28;20394;-74
2021/10/06 00:59:03;;;;;;;13.23;6.25;;;;;;;;;;5015253;28;20409;-74
2021/10/06 01:01:29;;;;;;;13.82;6.05;;;;;;;;;;5020093;28;20473;-74
2021/10/06 01:03:55;;;;;;;10.68;5.97;;;;;;;;;;5016838;28;20057;-74
2021/10/06 01:06:22;;;;;;;11.52;7.05;;;;;;;;;;5019043;28;20064;-74
2021/10/06 01:08:48;;;;;;;10.85;6.60;;;;;;;;;;5018380;28;20052;-74
2021/10/06 01:11:14;;;;;;;13.63;6.38;;;;;;;;;;5014891;28;20030;-74
2021/10/06 01:13:41;;;;;;;9.90;5.97;;;;;;;;;;5018670;28;20079;-74
2021/10/06 01:16:07;;;;;;;9.10;5.43;;;;;;;;;;5017936;28;20033;-74
2021/10/06 01:18:33;;;;;;;9.93;5.65;;;;;;;;;;5018819;28;20033;-74
2021/10/06 01:21:09;;;;;;;10.73;5.70;;;;;;;;;;5016946;28;20532;-74
2021/10/06 01:23:35;;;;;;;9.07;5.70;;;;;;;;;;5019785;28;20037;-74
2021/10/06 01:26:01;;;;;;;11.75;6.75;;;;;;;;;;5018237;28;20032;-74
2021/10/06 01:28:27;;;;;;;14.48;6.07;;;;;;;;;;5016146;28;20050;-74
2021/10/06 01:30:54;;;;;;;9.85;6.15;;;;;;;;;;5020296;28;20022;-74
2021/10/06 01:33:20;;;;;;;8.57;5.68;;;;;;;;;;5015675;28;20036;-74
2021/10/06 01:35:46;;;;;;;9.10;5.40;;;;;;;;;;5017089;28;20022;-74
2021/10/06 01:38:12;;;;;;;8.57;5.30;;;;;;;;;;5018902;28;20056;-75
2021/10/06 01:40:38;;;;;;;11.05;6.10;;;;;;;;;;5017261;28;20076;-74
2021/10/06 01:43:04;;;;;;;8.70;5.70;;;;;;;;;;5015315;28;20026;-75
2021/10/06 01:45:31;;;;;;;8.20;5.53;;;;;;;;;;5015385;28;20034;-75
2021/10/06 01:48:09;;;;;;;11.85;5.88;;;;;;;;;;5021067;28;20034;-74
2021/10/06 01:50:37;;;;;;;10.13;5.15;;;;;;;;;;5018976;28;20025;-75
2021/10/06 01:53:05;;;;;;;9.82;5.78;;;;;;;;;;5014558;28;20028;-75
2021/10/06 01:55:32;;;;;;;8.77;6.28;;;;;;;;;;5019807;28;20040;-75
2021/10/06 01:58:03;;;;;;;10.43;6.38;;;;;;;;;;5015084;28;20037;-74
2021/10/06 02:00:29;;;;;;;10.13;6.07;;;;;;;;;;5017328;28;20067;-74
2021/10/06 02:02:55;;;;;;;13.68;7.55;;;;;;;;;;5016769;28;20109;-74
2021/10/06 02:05:22;;;;;;;11.25;5.53;;;;;;;;;;5022274;28;20030;-74
2021/10/06 02:07:48;;;;;;;13.60;6.45;;;;;;;;;;5015894;28;20041;-75
2021/10/06 02:10:14;;;;;;;11.15;6.43;;;;;;;;;;5020661;28;20034;-75
2021/10/06 02:12:40;;;;;;;11.82;6.88;;;;;;;;;;5024636;28;20037;-75
2021/10/06 02:15:07;;;;;;;14.10;6.43;;;;;;;;;;5019568;28;20117;-74
2021/10/06 02:17:33;;;;;;;12.90;6.55;;;;;;;;;;5022536;28;20105;-75
2021/10/06 02:20:00;;;;;;;10.13;6.25;;;;;;;;;;5023941;28;20566;-74
2021/10/06 02:22:26;;;;;;;11.43;7.03;;;;;;;;;;5018972;28;20077;-74
2021/10/06 02:24:52;;;;;;;13.30;6.93;;;;;;;;;;5023313;28;20056;-75
2021/10/06 02:27:19;;;;;;;14.15;6.35;;;;;;;;;;5018237;28;20528;-74
2021/10/06 02:29:45;;;;;;;10.25;6.47;;;;;;;;;;5019351;28;20035;-74
2021/10/06 02:32:11;;;;;;;13.23;7.75;;;;;;;;;;5018307;28;20025;-74
2021/10/06 02:34:37;;;;;;;13.77;6.85;;;;;;;;;;5022004;28;20026;-74
2021/10/06 02:37:03;;;;;;;13.75;7.35;;;;;;;;;;5021655;28;20083;-74
2021/10/06 02:39:30;;;;;;;9.55;6.90;;;;;;;;;;5018765;28;20022;-74
2021/10/06 02:41:56;;;;;;;17.20;7.45;;;;;;;;;;5021217;28;20100;-75
2021/10/06 02:44:22;;;;;;;16.58;7.25;;;;;;;;;;5019422;28;20088;-75
2021/10/06 02:46:48;;;;;;;18.02;7.38;;;;;;;;;;5021330;28;20053;-74
2021/10/06 02:49:15;;;;;;;17.52;8.18;;;;;;;;;;5013377;28;20034;-75
2021/10/06 02:51:41;;;;;;;18.45;7.57;;;;;;;;;;5013443;28;20034;-75
2021/10/06 02:54:07;;;;;;;19.70;9.05;;;;;;;;;;5015846;28;20040;-75
2021/10/06 02:56:33;;;;;;;25.83;8.20;;;;;;;;;;5015168;28;20013;-75
2021/10/06 02:58:59;;;;;;;19.98;8.50;;;;;;;;;;5015570;28;20617;-74
2021/10/06 03:01:26;;;;;;;19.45;8.13;;;;;;;;;;5015031;28;20122;-74
2021/10/06 03:03:52;;;;;;;20.38;8.68;;;;;;;;;;5002861;28;20022;-74
2021/10/06 03:06:18;;;;;;;19.67;7.93;;;;;;;;;;5009292;28;20029;-74
2021/10/06 03:08:44;;;;;;;20.65;8.38;;;;;;;;;;5011675;28;20029;-74
2021/10/06 03:11:10;;;;;;;26.13;9.80;;;;;;;;;;5010094;28;20021;-74
2021/10/06 03:13:36;;;;;;;15.68;8.43;;;;;;;;;;5012049;28;20437;-75
2021/10/06 03:16:03;;;;;;;20.75;8.80;;;;;;;;;;5011682;28;20558;-75
2021/10/06 03:18:29;;;;;;;17.15;8.57;;;;;;;;;;5017855;28;20034;-75
2021/10/06 03:20:55;;;;;;;17.45;7.85;;;;;;;;;;5013260;28;20477;-75
2021/10/06 03:23:22;;;;;;;23.42;9.20;;;;;;;;;;5008680;28;20726;-75
2021/10/06 03:25:48;;;;;;;19.35;9.05;;;;;;;;;;5016438;28;20033;-74
2021/10/06 03:28:15;;;;;;;28.95;10.48;;;;;;;;;;5010301;28;20513;-75
2021/10/06 03:30:41;;;;;;;19.25;10.20;;;;;;;;;;5012922;28;20021;-74
2021/10/06 03:33:07;;;;;;;26.80;12.27;;;;;;;;;;5010551;28;20030;-75
2021/10/06 03:35:33;;;;;;;24.60;11.55;;;;;;;;;;5018225;28;20455;-74
2021/10/06 03:37:59;;;;;;;18.35;10.30;;;;;;;;;;5042198;28;20075;-74
2021/10/06 03:40:26;;;;;;;21.20;11.05;;;;;;;;;;5010927;28;20033;-75
2021/10/06 03:42:52;;;;;;;15.32;9.10;;;;;;;;;;5012913;28;20029;-75
2021/10/06 03:45:18;;;;;;;15.95;9.13;;;;;;;;;;5011185;28;20026;-74
2021/10/06 03:47:45;;;;;;;22.50;8.70;;;;;;;;;;5013701;28;20088;-75
2021/10/06 03:50:12;;;;;;;16.17;8.90;;;;;;;;;;5017145;28;20034;-74
2021/10/06 03:52:39;;;;;;;15.48;8.35;;;;;;;;;;5014410;28;20087;-75
2021/10/06 03:55:07;;;;;;;17.42;8.68;;;;;;;;;;5015184;28;20866;-75
2021/10/06 03:57:33;;;;;;;18.05;9.20;;;;;;;;;;5013619;28;20108;-74
2021/10/06 03:59:59;;;;;;;14.10;8.77;;;;;;;;;;5012855;28;20037;-74
2021/10/06 04:02:25;;;;;;;23.38;9.40;;;;;;;;;;5015722;28;20033;-74
2021/10/06 04:04:51;;;;;;;16.50;7.82;;;;;;;;;;5013749;28;20037;-74
2021/10/06 04:07:18;;;;;;;13.13;7.72;;;;;;;;;;5013362;28;20506;-74
2021/10/06 04:09:44;;;;;;;17.80;7.53;;;;;;;;;;5014052;28;20038;-74
2021/10/06 04:12:10;;;;;;;15.60;7.75;;;;;;;;;;5012598;28;20025;-74
2021/10/06 04:14:36;;;;;;;10.45;7.20;;;;;;;;;;5015495;28;20100;-74
2021/10/06 04:17:02;;;;;;;13.27;6.82;;;;;;;;;;5015300;28;20040;-74
2021/10/06 04:19:29;;;;;;;16.05;7.45;;;;;;;;;;5014349;28;20603;-74
2021/10/06 04:21:55;;;;;;;14.68;7.13;;;;;;;;;;5013960;28;20030;-75
2021/10/06 04:24:21;;;;;;;20.00;7.47;;;;;;;;;;5015836;28;20358;-74
2021/10/06 04:26:47;;;;;;;19.63;8.02;;;;;;;;;;5011833;28;20486;-75
2021/10/06 04:29:13;;;;;;;16.27;8.27;;;;;;;;;;5014863;28;20515;-74
2021/10/06 04:31:40;;;;;;;14.50;7.30;;;;;;;;;;5010730;28;20034;-75
2021/10/06 04:34:06;;;;;;;16.48;8.05;;;;;;;;;;5013002;28;20018;-75
2021/10/06 04:36:32;;;;;;;18.65;7.97;;;;;;;;;;5009104;28;20033;-74
2021/10/06 04:38:59;;;;;;;17.45;8.18;;;;;;;;;;5009098;28;20033;-74
2021/10/06 04:41:25;;;;;;;16.42;8.27;;;;;;;;;;5012655;28;20147;-75
2021/10/06 04:43:51;;;;;;;14.32;7.97;;;;;;;;;;5010690;28;20029;-75
2021/10/06 04:46:19;;;;;;;17.25;7.85;;;;;;;;;;5013378;28;20039;-74
2021/10/06 04:48:46;;;;;;;15.60;7.78;;;;;;;;;;5012697;28;20038;-74
2021/10/06 04:51:12;;;;;;;12.68;8.10;;;;;;;;;;5015878;28;20112;-75
2021/10/06 04:53:38;;;;;;;21.38;8.20;;;;;;;;;;5018693;28;20040;-74
2021/10/06 04:56:05;;;;;;;15.05;7.95;;;;;;;;;;5007448;28;20026;-74
2021/10/06 04:58:31;;;;;;;14.48;8.23;;;;;;;;;;5011532;28;20078;-74
2021/10/06 05:00:57;;;;;;;15.45;7.45;;;;;;;;;;5009745;28;20053;-74
2021/10/06 05:03:23;;;;;;;14.43;7.93;;;;;;;;;;5010844;28;20030;-75
2021/10/06 05:05:50;;;;;;;11.27;7.13;;;;;;;;;;5012167;28;20041;-74
2021/10/06 05:08:16;;;;;;;17.27;7.50;;;;;;;;;;5007095;28;20048;-75
2021/10/06 05:10:42;;;;;;;10.35;6.78;;;;;;;;;;5008774;28;20122;-75
2021/10/06 05:13:08;;;;;;;15.85;7.57;;;;;;;;;;5015076;28;20087;-75
2021/10/06 05:15:34;;;;;;;15.43;7.32;;;;;;;;;;5008416;28;20026;-74
2021/10/06 05:18:00;;;;;;;15.32;7.72;;;;;;;;;;5010383;28;20037;-75
2021/10/06 05:20:26;;;;;;;13.43;7.82;;;;;;;;;;5009136;28;20037;-74
2021/10/06 05:22:53;;;;;;;15.10;7.03;;;;;;;;;;5011258;28;20091;-74
2021/10/06 05:25:20;;;;;;;12.93;7.05;;;;;;;;;;5010618;28;20025;-74
2021/10/06 05:27:47;;;;;;;11.70;6.70;;;;;;;;;;5010838;28;20539;-74
2021/10/06 05:30:13;;;;;;;12.18;5.80;;;;;;;;;;5008821;28;20029;-75
2021/10/06 05:32:40;;;;;;;14.32;6.45;;;;;;;;;;5017333;28;21128;-74
2021/10/06 05:35:06;;;;;;;19.73;6.60;;;;;;;;;;5010543;28;20025;-74
2021/10/06 05:37:32;;;;;;;13.90;6.15;;;;;;;;;;5008882;28;20088;-75
2021/10/06 05:39:58;;;;;;;10.50;6.18;;;;;;;;;;5011712;28;20034;-74
2021/10/06 05:42:25;;;;;;;11.95;5.80;;;;;;;;;;5010509;28;20030;-74
2021/10/06 05:44:51;;;;;;;11.13;5.85;;;;;;;;;;5016375;28;20113;-75
2021/10/06 05:47:17;;;;;;;11.30;5.63;;;;;;;;;;5012676;28;20033;-74
2021/10/06 05:49:44;;;;;;;12.18;6.10;;;;;;;;;;5015658;28;20584;-74
2021/10/06 05:52:11;;;;;;;11.77;6.53;;;;;;;;;;5011388;28;20087;-74
2021/10/06 05:54:37;;;;;;;13.80;6.60;;;;;;;;;;5014204;28;20033;-75
2021/10/06 05:57:03;;;;;;;15.68;6.80;;;;;;;;;;5014541;28;20040;-74
2021/10/06 05:59:31;;;;;;;13.88;6.63;;;;;;;;;;5012980;28;20038;-76
2021/10/06 06:01:57;;;;;;;19.30;6.97;;;;;;;;;;5043990;28;20813;-75
2021/10/06 06:04:25;;;;;;;10.65;6.28;;;;;;;;;;5012300;28;20541;-75
2021/10/06 06:06:51;;;;;;;14.50;5.80;;;;;;;;;;5016759;28;20026;-75
2021/10/06 06:09:20;;;;;;;12.27;6.55;;;;;;;;;;5014629;28;20489;-74
2021/10/06 06:11:46;;;;;;;14.90;7.85;;;;;;;;;;5016769;28;20029;-76
2021/10/06 06:14:13;;;;;;;10.35;7.20;;;;;;;;;;5014142;28;20022;-77
2021/10/06 06:16:39;;;;;;;15.43;6.43;;;;;;;;;;5016688;28;20789;-76
2021/10/06 06:19:05;;;;;;;13.23;5.78;;;;;;;;;;5016141;28;20053;-75
2021/10/06 06:21:31;;;;;;;9.93;5.22;;;;;;;;;;5014905;28;20041;-75
2021/10/06 06:23:58;;;;;;;14.27;4.85;;;;;;;;;;5015783;28;20032;-75
2021/10/06 06:26:24;;;;;;;13.52;5.95;;;;;;;;;;5013360;28;20026;-76
2021/10/06 06:28:50;;;;;;;16.83;5.35;;;;;;;;;;5019490;28;20053;-75
2021/10/06 06:31:17;;;;;;;14.65;5.93;;;;;;;;;;5019288;28;20061;-77
2021/10/06 06:33:44;;;;;;;12.43;4.72;;;;;;;;;;5014881;28;20575;-75
2021/10/06 06:36:10;;;;;;;11.07;5.22;;;;;;;;;;5020687;28;20033;-75
2021/10/06 06:38:36;;;;;;;10.68;4.40;;;;;;;;;;5015311;28;20472;-76
2021/10/06 06:41:03;;;;;;;13.95;4.68;;;;;;;;;;5012912;28;20114;-75
2021/10/06 06:43:29;;;;;;;10.57;5.28;;;;;;;;;;5019038;28;20672;-76
2021/10/06 06:45:55;;;;;;;14.38;5.63;;;;;;;;;;5014506;28;20021;-75
2021/10/06 06:48:22;;;;;;;11.38;4.70;;;;;;;;;;5015458;28;20160;-76
2021/10/06 06:50:56;;;;;;;13.23;5.43;;;;;;;;;;5014073;28;20045;-78
2021/10/06 06:53:26;;;;;;;12.85;5.78;;;;;;;;;;5013855;28;20373;-76
2021/10/06 06:55:53;;;;;;;10.98;4.97;;;;;;;;;;5016756;28;20553;-76
2021/10/06 06:58:19;;;;;;;11.68;5.20;;;;;;;;;;5014613;28;20505;-76
2021/10/06 07:00:45;;;;;;;10.15;4.30;;;;;;;;;;5017903;28;20104;-76
2021/10/06 07:03:11;;;;;;;5.75;3.53;;;;;;;;;;5014122;28;20033;-76
2021/10/06 07:05:38;;;;;;;9.88;3.97;;;;;;;;;;5013417;28;20397;-76
2021/10/06 07:08:04;;;;;;;8.00;4.07;;;;;;;;;;5013596;28;20481;-76
2021/10/06 07:10:31;;;;;;;9.82;4.70;;;;;;;;;;5014953;28;20060;-76
2021/10/06 07:12:57;;;;;;;12.05;7.18;;;;;;;;;;5015666;28;20490;-76
2021/10/06 07:15:23;;;;;;;11.10;4.63;;;;;;;;;;5018730;28;20030;-76
2021/10/06 07:17:49;;;;;;;17.42;9.40;;;;;;;;;;5025628;28;20071;-76
2021/10/06 07:20:15;;;;;;;16.05;7.68;;;;;;;;;;5019961;28;20459;-76
2021/10/06 07:22:45;;;;;;;20.95;11.00;;;;;;;;;;5028535;28;20057;-77
2021/10/06 07:25:11;;;;;;;20.38;11.40;;;;;;;;;;5031509;28;20048;-76
2021/10/06 07:27:37;;;;;;;13.77;8.45;;;;;;;;;;5028469;28;20649;-77
2021/10/06 07:30:04;;;;;;;14.13;7.72;;;;;;;;;;5019915;28;20037;-77
2021/10/06 07:32:30;;;;;;;12.40;7.78;;;;;;;;;;5015689;28;20018;-77
2021/10/06 07:34:57;;;;;;;17.38;7.30;;;;;;;;;;5016930;28;20034;-76
2021/10/06 07:37:23;;;;;;;13.88;7.25;;;;;;;;;;5020939;28;20033;-77
2021/10/06 07:39:49;;;;;;;16.52;7.28;;;;;;;;;;5022342;28;20053;-77
2021/10/06 07:42:16;;;;;;;17.02;6.78;;;;;;;;;;5022619;28;20104;-76
2021/10/06 07:44:43;;;;;;;13.88;6.55;;;;;;;;;;5028049;28;20121;-76
2021/10/06 07:47:09;;;;;;;10.15;6.60;;;;;;;;;;5017676;28;20026;-76
2021/10/06 07:49:35;;;;;;;9.35;5.35;;;;;;;;;;5020584;28;20038;-76
2021/10/06 07:52:02;;;;;;;9.70;4.80;;;;;;;;;;5019987;28;20493;-78
2021/10/06 07:54:28;;;;;;;9.90;4.30;;;;;;;;;;5021834;28;20036;-76
2021/10/06 07:56:54;;;;;;;10.85;3.95;;;;;;;;;;5020915;28;20029;-76
2021/10/06 07:59:20;;;;;;;9.10;4.00;;;;;;;;;;5019847;28;20029;-77
2021/10/06 08:01:46;;;;;;;5.53;3.05;;;;;;;;;;5023444;28;20036;-78
2021/10/06 08:04:13;;;;;;;9.30;3.15;;;;;;;;;;5024834;28;20507;-75
2021/10/06 08:06:39;;;;;;;9.45;3.17;;;;;;;;;;5023682;28;20512;-84
2021/10/06 08:09:05;;;;;;;4.95;2.25;;;;;;;;;;5020167;28;20041;-77
2021/10/06 08:11:33;;;;;;;14.75;2.97;;;;;;;;;;5027094;28;20026;-79
2021/10/06 08:13:59;;;;;;;5.80;2.40;;;;;;;;;;5020582;28;20021;-79
2021/10/06 08:16:25;;;;;;;4.43;1.70;;;;;;;;;;5018546;28;20030;-76
2021/10/06 08:18:51;;;;;;;5.40;2.42;;;;;;;;;;5020459;28;20108;-78
2021/10/06 08:21:17;;;;;;;5.05;1.90;;;;;;;;;;5019468;28;20022;-77
2021/10/06 08:23:44;;;;;;;5.80;2.33;;;;;;;;;;5020695;28;20029;-76
2021/10/06 08:26:10;;;;;;;8.40;2.85;;;;;;;;;;5017797;28;20474;-79
2021/10/06 08:28:36;;;;;;;7.40;2.63;;;;;;;;;;5020762;28;20128;-79
2021/10/06 08:31:03;;;;;;;6.40;2.33;;;;;;;;;;5018998;28;20018;-78
2021/10/06 08:33:29;;;;;;;3.45;2.00;;;;;;;;;;5020199;28;20601;-75
2021/10/06 08:35:55;;;;;;;4.85;2.25;;;;;;;;;;5008381;28;20026;-77
2021/10/06 08:38:21;;;;;;;5.95;2.28;;;;;;;;;;5014051;28;20151;-78
2021/10/06 08:40:48;;;;;;;6.53;2.13;;;;;;;;;;5010836;28;20061;-77
2021/10/06 08:43:14;;;;;;;3.22;1.80;;;;;;;;;;5019806;28;20095;-74
2021/10/06 08:45:40;;;;;;;8.65;2.40;;;;;;;;;;5010541;28;20017;-76
2021/10/06 08:48:08;;;;;;;3.42;2.08;;;;;;;;;;5011769;28;20118;-75
2021/10/06 08:50:34;;;;;;;6.40;2.25;;;;;;;;;;5030108;28;20032;-76
2021/10/06 08:53:01;;;;;;;9.68;2.30;;;;;;;;;;5018837;28;20025;-77
2021/10/06 08:55:30;;;;;;;5.93;2.13;;;;;;;;;;5012431;28;20128;-79
2021/10/06 08:57:57;;;;;;;6.13;1.85;;;;;;;;;;5001943;28;20533;-78
2021/10/06 09:00:23;;;;;;;7.57;2.20;;;;;;;;;;5001826;28;20061;-76
2021/10/06 09:02:49;;;;;;;4.07;1.75;;;;;;;;;;5001736;28;20429;-75
2021/10/06 09:05:22;;;;;;;8.07;2.33;;;;;;;;;;5001751;28;20036;-79
2021/10/06 09:07:58;;;;;;;6.30;2.10;;;;;;;;;;5001562;28;20116;-77
2021/10/06 09:10:25;;;;;;;6.18;1.92;;;;;;;;;;5001476;28;20077;-75
2021/10/06 09:12:59;;;;;;;8.48;2.50;;;;;;;;;;5005373;28;20033;-78
2021/10/06 09:15:26;;;;;;;4.57;2.25;;;;;;;;;;5009673;28;20037;-77
2021/10/06 09:17:53;;;;;;;5.97;2.40;;;;;;;;;;5009332;28;20658;-77
2021/10/06 09:20:19;;;;;;;5.63;2.35;;;;;;;;;;5015497;28;20057;-74
2021/10/06 09:23:00;;;;;;;6.15;2.28;;;;;;;;;;5013136;28;20021;-76
2021/10/06 09:25:30;;;;;;;6.03;2.28;;;;;;;;;;5014966;28;20032;-75
2021/10/06 09:27:57;;;;;;;6.25;2.55;;;;;;;;;;5009595;28;20073;-75
2021/10/06 09:30:24;;;;;;;6.78;3.47;;;;;;;;;;5008720;28;20520;-75
2021/10/06 09:32:50;;;;;;;8.63;4.80;;;;;;;;;;5002721;28;20542;-78
2021/10/06 09:35:23;;;;;;;8.02;4.53;;;;;;;;;;5016672;28;20541;-76
2021/10/06 09:37:53;;;;;;;7.43;3.45;;;;;;;;;;5001269;28;20041;-75
2021/10/06 09:40:21;;;;;;;7.82;2.55;;;;;;;;;;5001324;28;20045;-75
2021/10/06 09:42:48;;;;;;;5.22;2.13;;;;;;;;;;5000146;28;20053;-77
2021/10/06 09:45:27;;;;;;;4.05;1.52;;;;;;;;;;5005686;28;20022;-79
2021/10/06 09:48:12;;;;;;;4.35;1.63;;;;;;;;;;5012199;28;20076;-77
2021/10/06 09:50:42;;;;;;;3.65;1.73;;;;;;;;;;5011114;28;20034;-78
2021/10/06 09:53:12;;;;;;;4.57;1.33;;;;;;;;;;5011304;28;20103;-76
2021/10/06 09:55:39;;;;;;;7.22;2.03;;;;;;;;;;5011337;28;20113;-78
2021/10/06 09:58:05;;;;;;;5.80;2.58;;;;;;;;;;5012186;28;20074;-79
2021/10/06 10:00:32;;;;;;;8.32;3.10;;;;;;;;;;5011105;28;20596;-80
2021/10/06 10:02:58;;;;;;;3.92;2.47;;;;;;;;;;5012754;28;20362;-78
2021/10/06 10:05:25;;;;;;;2.90;1.70;;;;;;;;;;5010979;28;20030;-75
2021/10/06 10:07:53;;;;;;;4.38;1.70;;;;;;;;;;5011202;28;20508;-76
2021/10/06 10:10:20;;;;;;;4.05;2.05;;;;;;;;;;5010677;28;20578;-75
2021/10/06 10:12:46;;;;;;;5.50;2.13;;;;;;;;;;5012873;28;20029;-76
2021/10/06 10:15:14;;;;;;;4.95;2.08;;;;;;;;;;5003490;28;20034;-75
2021/10/06 10:17:40;;;;;;;5.03;2.47;;;;;;;;;;5008826;28;20127;-75
2021/10/06 10:20:11;;;;;;;4.85;3.42;;;;;;;;;;5015138;28;20037;-76
2021/10/06 10:22:39;;;;;;;5.50;3.35;;;;;;;;;;5013884;28;20105;-79
2021/10/06 10:25:25;;;;;;;7.03;2.92;;;;;;;;;;5009396;28;20029;-75
2021/10/06 10:28:03;;;;;;;5.72;2.25;;;;;;;;;;5009458;28;20054;-78
2021/10/06 10:30:34;;;;;;;6.38;2.03;;;;;;;;;;5011084;28;20041;-75
2021/10/06 10:33:00;;;;;;;7.65;2.83;;;;;;;;;;5015048;28;20057;-75
2021/10/06 10:35:33;;;;;;;5.38;2.75;;;;;;;;;;5015363;28;20057;-78
2021/10/06 10:37:59;;;;;;;7.00;2.15;;;;;;;;;;5011767;28;20021;-78
2021/10/06 10:40:34;;;;;;;11.95;2.15;;;;;;;;;;5014805;28;20158;-76
2021/10/06 10:43:14;;;;;;;6.25;1.50;;;;;;;;;;5022088;28;20033;-77
2021/10/06 10:46:05;;;;;;;5.35;1.90;;;;;;;;;;5016796;28;20037;-78
2021/10/06 10:48:50;;;;;;;6.05;2.33;;;;;;;;;;5002630;28;20092;-77
2021/10/06 10:51:16;;;;;;;4.45;1.80;;;;;;;;;;5009927;28;20184;-76
2021/10/06 10:53:52;;;;;;;3.28;1.67;;;;;;;;;;5012324;28;20055;-79
2021/10/06 10:56:38;;;;;;;11.88;1.85;;;;;;;;;;5014345;28;20022;-77
2021/10/06 10:59:06;;;;;;;4.93;1.60;;;;;;;;;;5014520;28;20113;-75
2021/10/06 11:01:46;;;;;;;6.15;1.52;;;;;;;;;;5020034;28;20038;-75
2021/10/06 11:04:12;;;;;;;4.60;1.52;;;;;;;;;;5022494;28;20090;-78
2021/10/06 11:06:40;;;;;;;8.20;1.98;;;;;;;;;;5019067;28;20737;-80
2021/10/06 11:09:25;;;;;;;8.10;2.35;;;;;;;;;;5014282;28;20501;-78
2021/10/06 11:11:51;;;;;;;4.72;1.83;;;;;;;;;;5016115;28;20030;-80
2021/10/06 11:14:21;;;;;;;3.70;1.70;;;;;;;;;;5008386;28;20018;-79
2021/10/06 11:17:07;;;;;;;7.25;2.03;;;;;;;;;;5022656;28;20028;-77
2021/10/06 11:19:40;;;;;;;5.93;2.10;;;;;;;;;;5018977;28;20519;-77
2021/10/06 11:22:22;;;;;;;5.28;2.10;;;;;;;;;;5012329;28;20045;-78
2021/10/06 11:24:58;;;;;;;5.10;1.60;;;;;;;;;;5016159;28;20076;-78
2021/10/06 11:27:25;;;;;;;4.65;2.42;;;;;;;;;;5015194;28;20049;-79
2021/10/06 11:29:52;;;;;;;4.65;2.40;;;;;;;;;;5012138;28;20038;-78
2021/10/06 11:32:18;;;;;;;4.35;1.42;;;;;;;;;;5012329;28;20029;-79
2021/10/06 11:34:50;;;;;;;6.45;1.63;;;;;;;;;;5017711;28;20087;-77
2021/10/06 11:37:22;;;;;;;3.50;1.30;;;;;;;;;;5018396;28;20030;-76
2021/10/06 11:39:48;;;;;;;7.93;1.50;;;;;;;;;;5018949;28;20033;-78
2021/10/06 11:42:15;;;;;;;4.40;1.60;;;;;;;;;;5018121;28;20075;-76
2021/10/06 11:44:42;;;;;;;3.60;1.30;;;;;;;;;;5022000;28;20034;-79
2021/10/06 11:47:09;;;;;;;3.72;1.45;;;;;;;;;;5018926;28;20017;-79
2021/10/06 11:49:39;;;;;;;5.15;1.60;;;;;;;;;;5021078;28;20517;-78
2021/10/06 11:52:06;;;;;;;5.10;1.52;;;;;;;;;;5023205;28;20057;-79
2021/10/06 11:54:32;;;;;;;4.13;1.50;;;;;;;;;;5013286;28;20030;-78
2021/10/06 11:57:00;;;;;;;5.85;1.83;;;;;;;;;;5016142;28;20488;-78
2021/10/06 11:59:30;;;;;;;4.07;1.77;;;;;;;;;;5014170;28;20038;-79
2021/10/06 12:01:58;;;;;;;3.30;1.40;;;;;;;;;;5013914;28;20025;-77
2021/10/06 12:04:25;;;;;;;13.70;4.63;;;;;;;;;;5017398;28;20030;-76
2021/10/06 12:07:00;;;;;;;7.95;3.13;;;;;;;;;;5015344;28;20028;-76
2021/10/06 12:09:28;;;;;;;6.60;2.03;;;;;;;;;;5006393;28;20038;-76
2021/10/06 12:11:54;;;;;;;6.13;2.30;;;;;;;;;;5013293;28;20018;-77
2021/10/06 12:14:28;;;;;;;3.33;2.03;;;;;;;;;;5010288;28;20030;-77
2021/10/06 12:17:12;;;;;;;3.95;1.20;;;;;;;;;;5004484;28;20072;-74
2021/10/06 12:19:39;;;;;;;2.35;1.17;;;;;;;;;;5014821;28;20025;-74
2021/10/06 12:22:06;;;;;;;4.90;1.52;;;;;;;;;;5015704;28;20497;-76
2021/10/06 12:24:33;;;;;;;4.65;1.17;;;;;;;;;;5016309;28;20022;-77
2021/10/06 12:26:59;;;;;;;9.55;1.83;;;;;;;;;;5011176;28;20033;-77
2021/10/06 12:29:28;;;;;;;5.80;1.40;;;;;;;;;;5007262;28;20054;-78
2021/10/06 12:32:10;;;;;;;5.22;1.30;;;;;;;;;;5003654;28;20025;-77
2021/10/06 12:34:36;;;;;;;3.20;1.40;;;;;;;;;;5002796;28;20028;-78
2021/10/06 12:37:05;;;;;;;4.30;1.35;;;;;;;;;;5008885;28;20083;-75
2021/10/06 12:39:31;;;;;;;5.10;1.73;;;;;;;;;;5006170;28;20026;-78
2021/10/06 12:42:00;;;;;;;4.63;1.70;;;;;;;;;;5014436;28;20108;-76
2021/10/06 12:44:35;;;;;;;3.95;1.35;;;;;;;;;;5005960;28;20021;-76
2021/10/06 12:47:01;;;;;;;3.20;1.20;;;;;;;;;;5009119;28;20481;-76
2021/10/06 12:49:29;;;;;;;4.78;1.40;;;;;;;;;;5020495;28;20705;-76
2021/10/06 12:51:55;;;;;;;5.10;1.13;;;;;;;;;;5010832;28;20026;-76
2021/10/06 12:54:22;;;;;;;5.53;1.55;;;;;;;;;;5009430;28;20060;-76
2021/10/06 12:56:48;;;;;;;3.40;1.25;;;;;;;;;;5014077;28;20048;-76
2021/10/06 12:59:15;;;;;;;5.22;1.13;;;;;;;;;;5012292;28;20251;-76
2021/10/06 13:01:46;;;;;;;5.38;1.17;;;;;;;;;;5017778;28;20810;-76
2021/10/06 13:04:14;;;;;;;3.53;1.10;;;;;;;;;;5014369;28;20641;-76
2021/10/06 13:06:41;;;;;;;4.07;0.85;;;;;;;;;;5009293;28;20096;-74
2021/10/06 13:09:07;;;;;;;2.22;1.15;;;;;;;;;;5020460;28;20026;-77
2021/10/06 13:11:37;;;;;;;4.60;1.30;;;;;;;;;;5009887;28;20438;-76
2021/10/06 13:14:03;;;;;;;2.90;0.98;;;;;;;;;;5020845;28;20029;-73
2021/10/06 13:16:30;;;;;;;4.07;1.17;;;;;;;;;;5017911;28;20124;-77
2021/10/06 13:18:56;;;;;;;5.55;1.17;;;;;;;;;;5016499;28;20045;-73
2021/10/06 13:21:23;;;;;;;4.13;1.17;;;;;;;;;;5016885;28;20608;-76
2021/10/06 13:23:50;;;;;;;3.30;1.02;;;;;;;;;;5009745;28;20508;-76
2021/10/06 13:26:16;;;;;;;4.85;1.42;;;;;;;;;;5012761;28;20057;-75
2021/10/06 13:28:43;;;;;;;3.90;1.17;;;;;;;;;;5024934;28;20060;-73
2021/10/06 13:31:10;;;;;;;2.13;0.93;;;;;;;;;;5009360;28;20410;-76
2021/10/06 13:33:36;;;;;;;2.92;0.80;;;;;;;;;;5009717;28;20032;-77
2021/10/06 13:36:08;;;;;;;3.35;1.00;;;;;;;;;;5007808;28;20574;-76
2021/10/06 13:38:34;;;;;;;1.48;0.80;;;;;;;;;;5010053;28;20029;-76
2021/10/06 13:41:00;;;;;;;3.83;1.05;;;;;;;;;;5013167;28;20022;-76
2021/10/06 13:43:27;;;;;;;4.90;1.55;;;;;;;;;;5009629;28;20026;-77
2021/10/06 13:45:53;;;;;;;3.90;1.45;;;;;;;;;;5013496;28;20389;-77
2021/10/06 13:48:19;;;;;;;34.03;18.65;;;;;;;;;;5009420;28;20037;-77
2021/10/06 13:50:45;;;;;;;6.57;1.38;;;;;;;;;;5011965;28;20017;-75
2021/10/06 13:53:11;;;;;;;2.90;0.70;;;;;;;;;;5013042;28;20032;-76
2021/10/06 13:55:37;;;;;;;4.57;1.10;;;;;;;;;;5014305;28;20018;-73
2021/10/06 13:58:04;;;;;;;4.13;1.10;;;;;;;;;;5012329;28;20095;-76
2021/10/06 14:00:31;;;;;;;8.13;1.63;;;;;;;;;;5009147;28;20033;-75
2021/10/06 14:03:01;;;;;;;6.15;1.63;;;;;;;;;;5009669;28;20022;-76
2021/10/06 14:05:27;;;;;;;19.77;10.07;;;;;;;;;;5007946;28;20029;-74
2021/10/06 14:07:54;;;;;;;7.78;2.80;;;;;;;;;;5020871;28;20030;-76
2021/10/06 14:10:20;;;;;;;2.92;1.58;;;;;;;;;;5010310;28;20041;-74
2021/10/06 14:12:47;;;;;;;5.03;1.40;;;;;;;;;;5011708;28;20049;-76
2021/10/06 14:15:13;;;;;;;3.95;1.33;;;;;;;;;;5015676;28;20563;-77
2021/10/06 14:17:39;;;;;;;5.03;1.25;;;;;;;;;;5012456;28;20033;-73
2021/10/06 14:20:07;;;;;;;6.43;1.60;;;;;;;;;;5014396;28;20080;-75
2021/10/06 14:22:36;;;;;;;16.52;4.75;;;;;;;;;;5011389;28;20033;-75
2021/10/06 14:25:04;;;;;;;6.93;2.40;;;;;;;;;;5017372;28;20029;-76
2021/10/06 14:27:30;;;;;;;8.73;4.10;;;;;;;;;;5015416;28;20050;-74
2021/10/06 14:29:56;;;;;;;8.73;5.68;;;;;;;;;;5016649;28;20480;-75
2021/10/06 14:32:22;;;;;;;2.78;0.90;;;;;;;;;;5012639;28;20512;-76
2021/10/06 14:34:49;;;;;;;4.65;1.25;;;;;;;;;;5012881;28;20036;-74
2021/10/06 14:37:15;;;;;;;4.03;1.08;;;;;;;;;;5021676;28;20052;-77